sensor_id;sensor_type;location;lat;lon;timestamp;pressure;altitude;pressure_sealevel;temperature;humidity
30730;BME280;17476;48.458;7.928;2024-02-04T00:00:02;101379.50;;;7.74;100.00
30730;BME280;17476;48.458;7.928;2024-02-04T00:02:28;101383.88;;;7.74;100.00
30730;BME280;17476;48.458;7.928;2024-02-04T00:04:54;101391.84;;;7.83;100.00
30730;BME280;17476;48.458;7.928;2024-02-04T00:07:20;101390.81;;;7.86;100.00
30730;BME280;17476;48.458;7.928;2024-02-04T00:09:45;101382.22;;;7.97;100.00
30730;BME280;17476;48.458;7.928;2024-02-04T00:12:11;101371.09;;;8.06;100.00
30730;BME280;17476;48.458;7.928;2024-02-04T00:14:37;101364.88;;;8.19;100.00
30730;BME280;17476;48.458;7.928;2024-02-04T00:17:03;101362.28;;;8.19;100.00
30730;BME280;17476;48.458;7.928;2024-02-04T00:19:29;101363.84;;;8.22;100.00
30730;BME280;17476;48.458;7.928;2024-02-04T00:21:55;101348.09;;;8.24;100.00
30730;BME280;17476;48.458;7.928;2024-02-04T00:24:20;101347.59;;;8.18;100.00
30730;BME280;17476;48.458;7.928;2024-02-04T00:26:46;101332.28;;;8.03;100.00
30730;BME280;17476;48.458;7.928;2024-02-04T00:29:12;101312.22;;;7.92;100.00
30730;BME280;17476;48.458;7.928;2024-02-04T00:31:38;101305.47;;;7.89;100.00
30730;BME280;17476;48.458;7.928;2024-02-04T00:34:04;101303.22;;;7.96;100.00
30730;BME280;17476;48.458;7.928;2024-02-04T00:36:30;101328.97;;;8.12;100.00
30730;BME280;17476;48.458;7.928;2024-02-04T00:38:56;101344.47;;;8.02;100.00
30730;BME280;17476;48.458;7.928;2024-02-04T00:41:22;101341.41;;;8.08;100.00
30730;BME280;17476;48.458;7.928;2024-02-04T00:43:48;101316.69;;;8.25;100.00
30730;BME280;17476;48.458;7.928;2024-02-04T00:46:13;101297.41;;;8.28;100.00
30730;BME280;17476;48.458;7.928;2024-02-04T00:48:39;101291.25;;;8.29;100.00
30730;BME280;17476;48.458;7.928;2024-02-04T00:51:07;101277.00;;;8.10;100.00
30730;BME280;17476;48.458;7.928;2024-02-04T00:53:33;101269.41;;;8.18;100.00
30730;BME280;17476;48.458;7.928;2024-02-04T00:56:02;101277.69;;;7.77;100.00
30730;BME280;17476;48.458;7.928;2024-02-04T00:58:28;101288.19;;;7.88;100.00
30730;BME280;17476;48.458;7.928;2024-02-04T01:00:53;101294.25;;;8.00;100.00
30730;BME280;17476;48.458;7.928;2024-02-04T01:03:19;101298.22;;;8.17;100.00
30730;BME280;17476;48.458;7.928;2024-02-04T01:05:45;101307.09;;;8.26;100.00
30730;BME280;17476;48.458;7.928;2024-02-04T01:08:11;101303.22;;;8.31;100.00
30730;BME280;17476;48.458;7.928;2024-02-04T01:10:36;101305.00;;;7.96;100.00
30730;BME280;17476;48.458;7.928;2024-02-04T01:13:04;101311.88;;;7.97;100.00
30730;BME280;17476;48.458;7.928;2024-02-04T01:15:30;101309.47;;;8.17;100.00
30730;BME280;17476;48.458;7.928;2024-02-04T01:17:55;101309.63;;;8.27;100.00
30730;BME280;17476;48.458;7.928;2024-02-04T01:20:21;101313.59;;;8.44;100.00
30730;BME280;17476;48.458;7.928;2024-02-04T01:22:47;101303.41;;;8.52;100.00
30730;BME280;17476;48.458;7.928;2024-02-04T01:25:13;101294.41;;;8.56;100.00
30730;BME280;17476;48.458;7.928;2024-02-04T01:27:39;101288.72;;;8.51;99.54
30730;BME280;17476;48.458;7.928;2024-02-04T01:30:05;101276.88;;;8.47;99.33
30730;BME280;17476;48.458;7.928;2024-02-04T01:32:31;101285.16;;;8.52;100.00
30730;BME280;17476;48.458;7.928;2024-02-04T01:34:57;101269.25;;;8.44;100.00
30730;BME280;17476;48.458;7.928;2024-02-04T01:37:23;101271.81;;;8.33;100.00
30730;BME280;17476;48.458;7.928;2024-02-04T01:39:49;101283.84;;;8.35;100.00
30730;BME280;17476;48.458;7.928;2024-02-04T01:42:14;101295.91;;;8.36;100.00
30730;BME280;17476;48.458;7.928;2024-02-04T01:44:40;101285.16;;;8.52;100.00
30730;BME280;17476;48.458;7.928;2024-02-04T01:47:07;101298.88;;;8.43;100.00
30730;BME280;17476;48.458;7.928;2024-02-04T01:49:33;101311.66;;;8.35;100.00
30730;BME280;17476;48.458;7.928;2024-02-04T01:52:00;101323.81;;;8.23;100.00
30730;BME280;17476;48.458;7.928;2024-02-04T01:54:27;101319.53;;;7.87;100.00
30730;BME280;17476;48.458;7.928;2024-02-04T01:56:53;101330.38;;;7.57;100.00
30730;BME280;17476;48.458;7.928;2024-02-04T01:59:20;101324.59;;;7.53;100.00
30730;BME280;17476;48.458;7.928;2024-02-04T02:01:48;101316.38;;;7.71;100.00
30730;BME280;17476;48.458;7.928;2024-02-04T02:04:14;101336.38;;;7.46;100.00
30730;BME280;17476;48.458;7.928;2024-02-04T02:06:40;101329.94;;;7.39;100.00
30730;BME280;17476;48.458;7.928;2024-02-04T02:09:07;101334.38;;;7.50;100.00
30730;BME280;17476;48.458;7.928;2024-02-04T02:11:47;101337.91;;;7.12;100.00
30730;BME280;17476;48.458;7.928;2024-02-04T02:17:53;101339.88;;;7.08;100.00
30730;BME280;17476;48.458;7.928;2024-02-04T02:20:52;101346.97;;;7.19;100.00
30730;BME280;17476;48.458;7.928;2024-02-04T02:23:31;101345.75;;;7.36;100.00
30730;BME280;17476;48.458;7.928;2024-02-04T02:26:00;101357.75;;;7.26;100.00
30730;BME280;17476;48.458;7.928;2024-02-04T02:28:28;101355.13;;;7.38;100.00
30730;BME280;17476;48.458;7.928;2024-02-04T02:30:53;101361.75;;;7.19;100.00
30730;BME280;17476;48.458;7.928;2024-02-04T02:33:19;101358.06;;;7.34;100.00
30730;BME280;17476;48.458;7.928;2024-02-04T02:35:46;101365.47;;;7.27;100.00
30730;BME280;17476;48.458;7.928;2024-02-04T02:38:40;101366.72;;;7.09;100.00
30730;BME280;17476;48.458;7.928;2024-02-04T02:41:10;101366.63;;;7.10;100.00
30730;BME280;17476;48.458;7.928;2024-02-04T02:43:39;101359.19;;;7.30;100.00
30730;BME280;17476;48.458;7.928;2024-02-04T02:46:07;101365.47;;;7.15;100.00
30730;BME280;17476;48.458;7.928;2024-02-04T02:48:33;101367.13;;;7.16;100.00
30730;BME280;17476;48.458;7.928;2024-02-04T02:50:59;101364.53;;;7.16;100.00
30730;BME280;17476;48.458;7.928;2024-02-04T02:53:25;101346.00;;;7.33;100.00
30730;BME280;17476;48.458;7.928;2024-02-04T02:55:51;101353.38;;;7.39;100.00
30730;BME280;17476;48.458;7.928;2024-02-04T02:58:16;101368.31;;;7.48;100.00
30730;BME280;17476;48.458;7.928;2024-02-04T03:00:43;101367.44;;;7.24;100.00
30730;BME280;17476;48.458;7.928;2024-02-04T03:03:09;101366.13;;;7.18;100.00
30730;BME280;17476;48.458;7.928;2024-02-04T03:05:34;101369.53;;;7.19;100.00
30730;BME280;17476;48.458;7.928;2024-02-04T03:08:00;101359.59;;;7.36;100.00
30730;BME280;17476;48.458;7.928;2024-02-04T03:10:26;101360.44;;;7.24;100.00
30730;BME280;17476;48.458;7.928;2024-02-04T03:12:52;101355.38;;;7.10;100.00
30730;BME280;17476;48.458;7.928;2024-02-04T03:15:17;101366.53;;;7.12;100.00
30730;BME280;17476;48.458;7.928;2024-02-04T03:17:43;101362.56;;;7.19;100.00
30730;BME280;17476;48.458;7.928;2024-02-04T03:20:10;101357.66;;;7.15;100.00
30730;BME280;17476;48.458;7.928;2024-02-04T03:22:36;101356.72;;;7.16;100.00
30730;BME280;17476;48.458;7.928;2024-02-04T03:25:01;101357.53;;;7.29;100.00
30730;BME280;17476;48.458;7.928;2024-02-04T03:27:27;101363.91;;;7.25;100.00
30730;BME280;17476;48.458;7.928;2024-02-04T03:29:53;101365.69;;;7.11;100.00
30730;BME280;17476;48.458;7.928;2024-02-04T03:32:19;101363.81;;;7.26;100.00
30730;BME280;17476;48.458;7.928;2024-02-04T03:34:44;101361.31;;;7.25;100.00
30730;BME280;17476;48.458;7.928;2024-02-04T03:37:10;101356.19;;;7.23;100.00
30730;BME280;17476;48.458;7.928;2024-02-04T03:39:36;101347.84;;;7.31;100.00
30730;BME280;17476;48.458;7.928;2024-02-04T03:42:02;101334.34;;;7.26;100.00
30730;BME280;17476;48.458;7.928;2024-02-04T03:44:27;101319.16;;;7.20;100.00
30730;BME280;17476;48.458;7.928;2024-02-04T03:46:53;101310.72;;;7.16;100.00
30730;BME280;17476;48.458;7.928;2024-02-04T03:49:19;101313.59;;;7.37;100.00
30730;BME280;17476;48.458;7.928;2024-02-04T03:51:45;101303.03;;;7.51;100.00
30730;BME280;17476;48.458;7.928;2024-02-04T03:54:10;101304.25;;;7.34;100.00
30730;BME280;17476;48.458;7.928;2024-02-04T03:56:36;101297.25;;;7.35;100.00
30730;BME280;17476;48.458;7.928;2024-02-04T03:59:02;101298.22;;;7.34;100.00
30730;BME280;17476;48.458;7.928;2024-02-04T04:01:28;101294.38;;;7.27;100.00
30730;BME280;17476;48.458;7.928;2024-02-04T04:03:53;101295.94;;;7.17;100.00
30730;BME280;17476;48.458;7.928;2024-02-04T04:06:19;101288.25;;;7.15;100.00
30730;BME280;17476;48.458;7.928;2024-02-04T04:08:45;101289.59;;;7.21;100.00
30730;BME280;17476;48.458;7.928;2024-02-04T04:11:11;101295.53;;;7.23;100.00
30730;BME280;17476;48.458;7.928;2024-02-04T04:13:37;101291.34;;;7.33;100.00
30730;BME280;17476;48.458;7.928;2024-02-04T04:16:04;101292.22;;;7.21;100.00
30730;BME280;17476;48.458;7.928;2024-02-04T04:18:30;101300.72;;;7.23;100.00
30730;BME280;17476;48.458;7.928;2024-02-04T04:20:56;101302.31;;;7.49;100.00
30730;BME280;17476;48.458;7.928;2024-02-04T04:23:22;101297.69;;;7.65;100.00
30730;BME280;17476;48.458;7.928;2024-02-04T04:25:48;101298.13;;;7.59;100.00
30730;BME280;17476;48.458;7.928;2024-02-04T04:28:14;101282.41;;;7.72;100.00
30730;BME280;17476;48.458;7.928;2024-02-04T04:30:40;101271.63;;;7.65;100.00
30730;BME280;17476;48.458;7.928;2024-02-04T04:33:05;101273.78;;;7.48;100.00
30730;BME280;17476;48.458;7.928;2024-02-04T04:35:34;101277.59;;;7.31;100.00
30730;BME280;17476;48.458;7.928;2024-02-04T04:38:00;101279.44;;;7.42;100.00
30730;BME280;17476;48.458;7.928;2024-02-04T04:40:26;101296.03;;;7.28;100.00
30730;BME280;17476;48.458;7.928;2024-02-04T04:42:52;101307.94;;;7.43;100.00
30730;BME280;17476;48.458;7.928;2024-02-04T04:45:17;101306.53;;;7.39;100.00
30730;BME280;17476;48.458;7.928;2024-02-04T04:47:43;101284.00;;;7.38;100.00
30730;BME280;17476;48.458;7.928;2024-02-04T04:50:09;101285.41;;;7.31;100.00
30730;BME280;17476;48.458;7.928;2024-02-04T04:52:35;101293.00;;;7.34;100.00
30730;BME280;17476;48.458;7.928;2024-02-04T04:55:01;101288.22;;;7.52;100.00
30730;BME280;17476;48.458;7.928;2024-02-04T04:57:26;101299.88;;;7.35;100.00
30730;BME280;17476;48.458;7.928;2024-02-04T04:59:52;101302.59;;;7.33;100.00
30730;BME280;17476;48.458;7.928;2024-02-04T05:02:18;101306.72;;;7.36;100.00
30730;BME280;17476;48.458;7.928;2024-02-04T05:04:44;101314.84;;;7.31;100.00
30730;BME280;17476;48.458;7.928;2024-02-04T05:07:16;101316.03;;;7.27;100.00
30730;BME280;17476;48.458;7.928;2024-02-04T05:09:41;101314.50;;;7.49;100.00
30730;BME280;17476;48.458;7.928;2024-02-04T05:12:09;101313.78;;;7.47;100.00
30730;BME280;17476;48.458;7.928;2024-02-04T05:14:35;101297.69;;;7.65;100.00
30730;BME280;17476;48.458;7.928;2024-02-04T05:17:01;101311.22;;;7.58;100.00
30730;BME280;17476;48.458;7.928;2024-02-04T05:19:27;101313.34;;;7.53;100.00
30730;BME280;17476;48.458;7.928;2024-02-04T05:21:53;101314.03;;;7.79;100.00
30730;BME280;17476;48.458;7.928;2024-02-04T05:24:19;101313.66;;;7.48;100.00
30730;BME280;17476;48.458;7.928;2024-02-04T05:26:44;101330.25;;;7.34;100.00
30730;BME280;17476;48.458;7.928;2024-02-04T05:29:10;101332.94;;;7.46;100.00
30730;BME280;17476;48.458;7.928;2024-02-04T05:31:43;101329.69;;;7.55;100.00
30730;BME280;17476;48.458;7.928;2024-02-04T05:34:10;101332.81;;;7.47;100.00
30730;BME280;17476;48.458;7.928;2024-02-04T05:36:36;101336.19;;;7.36;100.00
30730;BME280;17476;48.458;7.928;2024-02-04T05:39:13;101341.72;;;7.32;100.00
30730;BME280;17476;48.458;7.928;2024-02-04T05:41:40;101335.72;;;7.55;100.00
30730;BME280;17476;48.458;7.928;2024-02-04T05:44:06;101346.56;;;7.49;100.00
30730;BME280;17476;48.458;7.928;2024-02-04T05:46:35;101343.47;;;7.31;100.00
30730;BME280;17476;48.458;7.928;2024-02-04T05:49:00;101334.41;;;7.37;100.00
30730;BME280;17476;48.458;7.928;2024-02-04T05:51:27;101344.19;;;7.46;100.00
30730;BME280;17476;48.458;7.928;2024-02-04T05:53:52;101347.63;;;7.47;100.00
30730;BME280;17476;48.458;7.928;2024-02-04T05:56:18;101347.53;;;7.35;100.00
30730;BME280;17476;48.458;7.928;2024-02-04T05:58:46;101337.63;;;7.41;100.00
30730;BME280;17476;48.458;7.928;2024-02-04T06:01:12;101349.94;;;7.38;100.00
30730;BME280;17476;48.458;7.928;2024-02-04T06:03:37;101351.06;;;7.47;100.00
30730;BME280;17476;48.458;7.928;2024-02-04T06:06:03;101358.34;;;7.42;100.00
30730;BME280;17476;48.458;7.928;2024-02-04T06:08:29;101358.84;;;7.47;100.00
30730;BME280;17476;48.458;7.928;2024-02-04T06:10:55;101358.97;;;7.46;100.00
30730;BME280;17476;48.458;7.928;2024-02-04T06:13:21;101372.84;;;7.33;100.00
30730;BME280;17476;48.458;7.928;2024-02-04T06:15:47;101366.28;;;7.28;100.00
30730;BME280;17476;48.458;7.928;2024-02-04T06:18:12;101359.59;;;7.36;100.00
30730;BME280;17476;48.458;7.928;2024-02-04T06:20:38;101366.66;;;7.47;100.00
30730;BME280;17476;48.458;7.928;2024-02-04T06:23:05;101367.63;;;7.46;100.00
30730;BME280;17476;48.458;7.928;2024-02-04T06:25:30;101355.88;;;7.28;100.00
30730;BME280;17476;48.458;7.928;2024-02-04T06:27:56;101343.38;;;7.33;100.00
30730;BME280;17476;48.458;7.928;2024-02-04T06:30:22;101343.38;;;7.33;100.00
30730;BME280;17476;48.458;7.928;2024-02-04T06:32:48;101350.91;;;7.25;100.00
30730;BME280;17476;48.458;7.928;2024-02-04T06:35:15;101356.81;;;7.27;100.00
30730;BME280;17476;48.458;7.928;2024-02-04T06:37:41;101353.41;;;7.14;100.00
30730;BME280;17476;48.458;7.928;2024-02-04T06:40:10;101354.34;;;7.25;100.00
30730;BME280;17476;48.458;7.928;2024-02-04T06:42:36;101357.81;;;7.37;100.00
30730;BME280;17476;48.458;7.928;2024-02-04T06:45:01;101358.66;;;7.37;100.00
30730;BME280;17476;48.458;7.928;2024-02-04T06:47:27;101357.78;;;7.13;100.00
30730;BME280;17476;48.458;7.928;2024-02-04T06:49:53;101363.81;;;7.26;100.00
30730;BME280;17476;48.458;7.928;2024-02-04T06:52:19;101350.38;;;7.32;100.00
30730;BME280;17476;48.458;7.928;2024-02-04T06:54:44;101350.34;;;7.45;100.00
30730;BME280;17476;48.458;7.928;2024-02-04T06:57:10;101345.56;;;7.39;100.00
30730;BME280;17476;48.458;7.928;2024-02-04T06:59:36;101357.53;;;7.29;100.00
30730;BME280;17476;48.458;7.928;2024-02-04T07:02:02;101358.19;;;7.20;100.00
30730;BME280;17476;48.458;7.928;2024-02-04T07:04:28;101358.38;;;7.29;100.00
30730;BME280;17476;48.458;7.928;2024-02-04T07:06:54;101364.84;;;7.11;100.00
30730;BME280;17476;48.458;7.928;2024-02-04T07:09:20;101361.94;;;7.16;100.00
30730;BME280;17476;48.458;7.928;2024-02-04T07:11:45;101363.16;;;7.23;100.00
30730;BME280;17476;48.458;7.928;2024-02-04T07:14:11;101356.81;;;7.27;100.00
30730;BME280;17476;48.458;7.928;2024-02-04T07:16:37;101365.88;;;7.21;100.00
30730;BME280;17476;48.458;7.928;2024-02-04T07:19:03;101370.56;;;7.29;100.00
30730;BME280;17476;48.458;7.928;2024-02-04T07:21:29;101361.25;;;7.37;100.00
30730;BME280;17476;48.458;7.928;2024-02-04T07:23:55;101364.50;;;7.41;100.00
30730;BME280;17476;48.458;7.928;2024-02-04T07:26:21;101363.88;;;7.37;100.00
30730;BME280;17476;48.458;7.928;2024-02-04T07:28:46;101359.44;;;7.27;100.00
30730;BME280;17476;48.458;7.928;2024-02-04T07:31:12;101361.91;;;7.28;100.00
30730;BME280;17476;48.458;7.928;2024-02-04T07:33:38;101354.09;;;7.41;100.00
30730;BME280;17476;48.458;7.928;2024-02-04T07:36:04;101352.44;;;7.27;100.00
30730;BME280;17476;48.458;7.928;2024-02-04T07:38:30;101347.34;;;7.38;100.00
30730;BME280;17476;48.458;7.928;2024-02-04T07:40:55;101340.66;;;7.34;100.00
30730;BME280;17476;48.458;7.928;2024-02-04T07:43:24;101336.72;;;7.29;100.00
30730;BME280;17476;48.458;7.928;2024-02-04T07:45:50;101328.81;;;7.18;100.00
30730;BME280;17476;48.458;7.928;2024-02-04T07:48:16;101323.91;;;7.38;100.00
30730;BME280;17476;48.458;7.928;2024-02-04T07:50:43;101328.22;;;7.51;100.00
30730;BME280;17476;48.458;7.928;2024-02-04T07:53:09;101326.00;;;7.57;100.00
30730;BME280;17476;48.458;7.928;2024-02-04T07:55:34;101333.56;;;7.36;100.00
30730;BME280;17476;48.458;7.928;2024-02-04T07:58:00;101327.22;;;7.41;100.00
30730;BME280;17476;48.458;7.928;2024-02-04T08:00:26;101330.94;;;7.49;100.00
30730;BME280;17476;48.458;7.928;2024-02-04T08:02:52;101327.53;;;7.36;100.00
30730;BME280;17476;48.458;7.928;2024-02-04T08:05:17;101325.06;;;7.34;100.00
30730;BME280;17476;48.458;7.928;2024-02-04T08:07:43;101315.59;;;7.57;100.00
30730;BME280;17476;48.458;7.928;2024-02-04T08:10:09;101317.31;;;7.70;100.00
30730;BME280;17476;48.458;7.928;2024-02-04T08:12:35;101313.50;;;7.62;100.00
30730;BME280;17476;48.458;7.928;2024-02-04T08:15:01;101316.25;;;7.72;100.00
30730;BME280;17476;48.458;7.928;2024-02-04T08:17:30;101326.47;;;7.75;100.00
30730;BME280;17476;48.458;7.928;2024-02-04T08:19:57;101322.31;;;7.73;100.00
30730;BME280;17476;48.458;7.928;2024-02-04T08:22:23;101328.00;;;7.78;100.00
30730;BME280;17476;48.458;7.928;2024-02-04T08:24:48;101329.16;;;7.98;100.00
30730;BME280;17476;48.458;7.928;2024-02-04T08:27:14;101331.31;;;8.04;100.00
30730;BME280;17476;48.458;7.928;2024-02-04T08:29:46;101338.19;;;8.05;100.00
30730;BME280;17476;48.458;7.928;2024-02-04T08:32:12;101345.19;;;8.04;100.00
30730;BME280;17476;48.458;7.928;2024-02-04T08:34:39;101346.88;;;8.16;100.00
30730;BME280;17476;48.458;7.928;2024-02-04T08:37:04;101351.13;;;8.06;99.83
30730;BME280;17476;48.458;7.928;2024-02-04T08:39:30;101353.44;;;7.98;100.00
30730;BME280;17476;48.458;7.928;2024-02-04T08:41:56;101358.19;;;8.04;100.00
30730;BME280;17476;48.458;7.928;2024-02-04T08:44:22;101361.69;;;7.92;100.00
30730;BME280;17476;48.458;7.928;2024-02-04T08:46:48;101348.09;;;8.24;99.52
30730;BME280;17476;48.458;7.928;2024-02-04T08:49:14;101353.00;;;8.04;100.00
30730;BME280;17476;48.458;7.928;2024-02-04T08:51:40;101343.72;;;8.24;99.49
30730;BME280;17476;48.458;7.928;2024-02-04T08:54:05;101349.41;;;8.29;98.54
30730;BME280;17476;48.458;7.928;2024-02-04T08:56:31;101338.19;;;8.05;99.38
30730;BME280;17476;48.458;7.928;2024-02-04T08:58:58;101334.19;;;8.36;98.37
30730;BME280;17476;48.458;7.928;2024-02-04T09:01:25;101329.41;;;8.30;98.45
30730;BME280;17476;48.458;7.928;2024-02-04T09:03:51;101314.25;;;8.35;98.32
30730;BME280;17476;48.458;7.928;2024-02-04T09:06:16;101311.44;;;8.38;98.34
30730;BME280;17476;48.458;7.928;2024-02-04T09:08:42;101311.72;;;8.22;98.57
30730;BME280;17476;48.458;7.928;2024-02-04T09:11:08;101316.50;;;8.28;99.44
30730;BME280;17476;48.458;7.928;2024-02-04T09:13:34;101312.50;;;8.35;98.75
30730;BME280;17476;48.458;7.928;2024-02-04T09:16:00;101311.13;;;8.54;98.30
30730;BME280;17476;48.458;7.928;2024-02-04T09:18:26;101306.94;;;8.51;97.25
30730;BME280;17476;48.458;7.928;2024-02-04T09:20:51;101315.84;;;8.60;96.87
30730;BME280;17476;48.458;7.928;2024-02-04T09:23:17;101318.94;;;8.65;97.44
30730;BME280;17476;48.458;7.928;2024-02-04T09:25:43;101319.06;;;8.63;96.63
30730;BME280;17476;48.458;7.928;2024-02-04T09:28:09;101320.38;;;8.69;95.51
30730;BME280;17476;48.458;7.928;2024-02-04T09:30:37;101319.78;;;8.77;95.00
30730;BME280;17476;48.458;7.928;2024-02-04T09:33:03;101329.25;;;9.00;93.15
30730;BME280;17476;48.458;7.928;2024-02-04T09:35:29;101321.00;;;8.95;93.57
30730;BME280;17476;48.458;7.928;2024-02-04T09:37:55;101331.06;;;8.88;95.15
30730;BME280;17476;48.458;7.928;2024-02-04T09:40:22;101326.56;;;9.01;93.75
30730;BME280;17476;48.458;7.928;2024-02-04T09:42:47;101324.75;;;9.13;94.35
30730;BME280;17476;48.458;7.928;2024-02-04T09:45:14;101314.09;;;9.16;93.23
30730;BME280;17476;48.458;7.928;2024-02-04T09:47:42;101326.19;;;9.28;92.32
30730;BME280;17476;48.458;7.928;2024-02-04T09:50:10;101306.13;;;9.18;93.23
30730;BME280;17476;48.458;7.928;2024-02-04T09:52:40;101306.09;;;9.40;90.86
30730;BME280;17476;48.458;7.928;2024-02-04T09:55:10;101282.72;;;9.39;92.74
30730;BME280;17476;48.458;7.928;2024-02-04T09:57:38;101268.84;;;9.70;91.14
30730;BME280;17476;48.458;7.928;2024-02-04T10:00:05;101284.47;;;9.81;90.13
30730;BME280;17476;48.458;7.928;2024-02-04T10:02:32;101319.75;;;9.44;91.10
30730;BME280;17476;48.458;7.928;2024-02-04T10:04:58;101343.94;;;9.35;90.51
30730;BME280;17476;48.458;7.928;2024-02-04T10:07:24;101344.19;;;9.32;91.48
30730;BME280;17476;48.458;7.928;2024-02-04T10:09:50;101346.34;;;9.38;92.75
30730;BME280;17476;48.458;7.928;2024-02-04T10:12:17;101331.06;;;9.65;89.65
30730;BME280;17476;48.458;7.928;2024-02-04T10:14:42;101321.94;;;9.60;88.31
30730;BME280;17476;48.458;7.928;2024-02-04T10:17:08;101317.19;;;9.10;91.62
30730;BME280;17476;48.458;7.928;2024-02-04T10:19:34;101309.56;;;9.18;92.00
30730;BME280;17476;48.458;7.928;2024-02-04T10:22:03;101294.38;;;9.23;92.71
30730;BME280;17476;48.458;7.928;2024-02-04T10:24:30;101299.09;;;9.41;91.10
30730;BME280;17476;48.458;7.928;2024-02-04T10:26:56;101297.28;;;9.41;92.50
30730;BME280;17476;48.458;7.928;2024-02-04T10:29:26;101294.84;;;9.72;89.43
30730;BME280;17476;48.458;7.928;2024-02-04T10:31:57;101290.56;;;10.03;88.72
30730;BME280;17476;48.458;7.928;2024-02-04T10:34:26;101295.25;;;9.88;89.85
30730;BME280;17476;48.458;7.928;2024-02-04T10:36:52;101294.59;;;9.75;90.43
30730;BME280;17476;48.458;7.928;2024-02-04T10:39:18;101300.69;;;9.96;88.87
30730;BME280;17476;48.458;7.928;2024-02-04T10:41:50;101287.09;;;10.02;87.27
30730;BME280;17476;48.458;7.928;2024-02-04T10:44:23;101274.09;;;9.91;88.57
30730;BME280;17476;48.458;7.928;2024-02-04T10:46:51;101274.47;;;9.87;89.78
30730;BME280;17476;48.458;7.928;2024-02-04T10:49:19;101265.03;;;9.95;89.16
30730;BME280;17476;48.458;7.928;2024-02-04T10:51:46;101267.88;;;10.03;88.20
30730;BME280;17476;48.458;7.928;2024-02-04T10:54:15;101272.63;;;9.98;88.30
30730;BME280;17476;48.458;7.928;2024-02-04T10:56:45;101265.06;;;10.16;89.12
30730;BME280;17476;48.458;7.928;2024-02-04T10:59:12;101274.09;;;10.23;88.03
30730;BME280;17476;48.458;7.928;2024-02-04T11:01:40;101255.81;;;10.12;88.44
30730;BME280;17476;48.458;7.928;2024-02-04T11:04:10;101258.81;;;10.28;87.76
30730;BME280;17476;48.458;7.928;2024-02-04T11:06:38;101263.91;;;10.51;87.59
30730;BME280;17476;48.458;7.928;2024-02-04T11:09:08;101267.94;;;10.34;86.83
30730;BME280;17476;48.458;7.928;2024-02-04T11:11:36;101266.78;;;10.48;86.81
30730;BME280;17476;48.458;7.928;2024-02-04T11:14:06;101279.19;;;11.26;84.97
30730;BME280;17476;48.458;7.928;2024-02-04T11:19:47;101275.91;;;11.72;79.63
30730;BME280;17476;48.458;7.928;2024-02-04T11:28:12;101293.91;;;11.27;81.01
30730;BME280;17476;48.458;7.928;2024-02-04T11:30:38;101288.88;;;11.55;81.14
30730;BME280;17476;48.458;7.928;2024-02-04T11:33:05;101273.56;;;11.69;80.21
30730;BME280;17476;48.458;7.928;2024-02-04T11:35:33;101280.09;;;11.15;82.16
30730;BME280;17476;48.458;7.928;2024-02-04T11:38:03;101275.34;;;11.49;81.82
30730;BME280;17476;48.458;7.928;2024-02-04T11:40:37;101262.59;;;11.16;81.84
30730;BME280;17476;48.458;7.928;2024-02-04T11:43:10;101253.28;;;11.33;81.99
30730;BME280;17476;48.458;7.928;2024-02-04T11:45:40;101253.13;;;11.34;81.44
30730;BME280;17476;48.458;7.928;2024-02-04T11:48:10;101245.41;;;11.42;80.51
30730;BME280;17476;48.458;7.928;2024-02-04T11:50:38;101238.81;;;11.48;81.06
30730;BME280;17476;48.458;7.928;2024-02-04T11:53:10;101244.06;;;11.87;79.51
30730;BME280;17476;48.458;7.928;2024-02-04T11:55:39;101233.69;;;11.75;79.21
30730;BME280;17476;48.458;7.928;2024-02-04T11:58:06;101233.00;;;12.02;79.98
30730;BME280;17476;48.458;7.928;2024-02-04T12:00:36;101227.72;;;12.12;78.42
30730;BME280;17476;48.458;7.928;2024-02-04T12:03:06;101229.53;;;12.12;76.74
30730;BME280;17476;48.458;7.928;2024-02-04T12:05:35;101220.63;;;12.32;77.81
30730;BME280;17476;48.458;7.928;2024-02-04T12:08:05;101213.69;;;12.03;77.83
30730;BME280;17476;48.458;7.928;2024-02-04T12:10:34;101210.53;;;11.42;81.56
30730;BME280;17476;48.458;7.928;2024-02-04T12:13:06;101210.94;;;11.28;81.65
30730;BME280;17476;48.458;7.928;2024-02-04T12:15:35;101208.44;;;11.16;82.53
30730;BME280;17476;48.458;7.928;2024-02-04T12:18:08;101215.25;;;11.38;82.03
30730;BME280;17476;48.458;7.928;2024-02-04T12:20:35;101204.06;;;11.46;82.23
30730;BME280;17476;48.458;7.928;2024-02-04T12:23:04;101201.88;;;11.32;82.66
30730;BME280;17476;48.458;7.928;2024-02-04T12:25:33;101209.28;;;11.56;82.73
30730;BME280;17476;48.458;7.928;2024-02-04T12:28:02;101213.28;;;11.50;82.79
30730;BME280;17476;48.458;7.928;2024-02-04T12:30:29;101207.66;;;11.26;82.57
30730;BME280;17476;48.458;7.928;2024-02-04T12:33:02;101200.84;;;11.04;82.92
30730;BME280;17476;48.458;7.928;2024-02-04T12:35:29;101198.13;;;11.25;81.81
30730;BME280;17476;48.458;7.928;2024-02-04T12:37:57;101189.44;;;11.05;83.03
30730;BME280;17476;48.458;7.928;2024-02-04T12:40:25;101187.50;;;11.16;83.31
30730;BME280;17476;48.458;7.928;2024-02-04T12:42:57;101190.66;;;11.10;83.90
30730;BME280;17476;48.458;7.928;2024-02-04T12:45:25;101186.28;;;11.20;83.91
30730;BME280;17476;48.458;7.928;2024-02-04T12:47:53;101192.41;;;10.90;84.79
30730;BME280;17476;48.458;7.928;2024-02-04T12:50:20;101190.38;;;10.94;85.66
30730;BME280;17476;48.458;7.928;2024-02-04T12:52:47;101181.44;;;11.06;85.22
30730;BME280;17476;48.458;7.928;2024-02-04T12:55:24;101184.06;;;11.16;84.84
30730;BME280;17476;48.458;7.928;2024-02-04T12:58:08;101189.72;;;11.21;83.59
30730;BME280;17476;48.458;7.928;2024-02-04T13:00:36;101192.06;;;11.63;82.39
30730;BME280;17476;48.458;7.928;2024-02-04T13:03:04;101182.94;;;11.38;82.36